createdAt,value
2023-05-07T00:02:26.271Z,20.91
2023-05-07T00:04:53.140Z,20.89
2023-05-07T00:07:19.827Z,20.88
2023-05-07T00:09:46.403Z,20.83
2023-05-07T00:12:14.464Z,20.57
2023-05-07T00:14:42.305Z,20.72
2023-05-07T00:17:08.849Z,20.83
2023-05-07T00:19:35.931Z,20.88
2023-05-07T00:22:03.502Z,21.04
2023-05-07T00:24:30.103Z,20.99
2023-05-07T00:26:57.334Z,20.87
2023-05-07T00:29:24.276Z,20.83
2023-05-07T00:31:51.541Z,20.80
2023-05-07T00:34:18.147Z,20.73
2023-05-07T00:36:44.811Z,20.77
2023-05-07T00:39:11.752Z,20.63
2023-05-07T00:41:40.928Z,20.52
2023-05-07T00:44:09.651Z,20.55
2023-05-07T00:46:37.109Z,20.20
2023-05-07T00:49:03.817Z,20.10
2023-05-07T00:51:30.381Z,20.31
2023-05-07T00:53:57.023Z,20.07
2023-05-07T00:56:23.592Z,20.10
2023-05-07T00:58:50.254Z,20.25
2023-05-07T01:01:17.129Z,19.99
2023-05-07T01:03:45.071Z,19.92
2023-05-07T01:06:12.176Z,20.01
2023-05-07T01:08:39.141Z,19.99
2023-05-07T01:11:05.752Z,19.86
2023-05-07T01:13:32.817Z,19.84
2023-05-07T01:15:59.390Z,19.60
2023-05-07T01:18:25.989Z,19.53
2023-05-07T01:20:52.676Z,19.74
2023-05-07T01:23:19.287Z,19.65
2023-05-07T01:25:45.875Z,19.67
2023-05-07T01:28:12.525Z,19.39
2023-05-07T01:30:39.121Z,19.39
2023-05-07T01:33:05.740Z,19.84
2023-05-07T01:35:32.332Z,20.10
2023-05-07T01:37:58.928Z,20.03
2023-05-07T01:40:25.492Z,19.92
2023-05-07T01:42:52.141Z,19.97
2023-05-07T01:45:19.626Z,19.95
2023-05-07T01:47:47.580Z,19.97
2023-05-07T01:50:14.441Z,19.85
2023-05-07T01:52:41.320Z,19.60
2023-05-07T01:55:08.272Z,19.69
2023-05-07T01:57:34.854Z,19.63
2023-05-07T02:00:01.448Z,19.36
2023-05-07T02:02:28.958Z,19.44
2023-05-07T02:04:55.556Z,19.49
2023-05-07T02:07:22.154Z,19.40
2023-05-07T02:09:48.714Z,19.23
2023-05-07T02:12:15.320Z,19.31
2023-05-07T02:14:41.975Z,19.26
2023-05-07T02:17:08.603Z,19.33
2023-05-07T02:19:35.229Z,19.32
2023-05-07T02:22:01.824Z,19.34
2023-05-07T02:24:28.381Z,19.25
2023-05-07T02:26:54.937Z,18.73
2023-05-07T02:29:21.527Z,18.64
2023-05-07T02:31:48.252Z,18.46
2023-05-07T02:34:14.844Z,18.56
2023-05-07T02:36:41.422Z,18.69
2023-05-07T02:39:07.989Z,18.70
2023-05-07T02:41:34.568Z,18.72
2023-05-07T02:44:01.147Z,18.38
2023-05-07T02:46:28.124Z,18.25
2023-05-07T02:48:54.751Z,18.33
2023-05-07T02:51:22.798Z,18.48
2023-05-07T02:53:50.641Z,18.38
2023-05-07T02:56:17.203Z,18.53
2023-05-07T02:58:43.777Z,18.68
2023-05-07T03:01:10.435Z,18.50
2023-05-07T03:03:37.367Z,18.49
2023-05-07T03:06:03.965Z,18.16
2023-05-07T03:08:33.019Z,18.24
2023-05-07T03:11:03.053Z,18.15
2023-05-07T03:13:31.754Z,18.18
2023-05-07T03:15:59.159Z,18.31
2023-05-07T03:18:25.780Z,18.39
2023-05-07T03:20:52.468Z,18.25
2023-05-07T03:23:19.247Z,18.25
2023-05-07T03:25:45.836Z,18.21
2023-05-07T03:28:12.417Z,18.25
2023-05-07T03:30:38.998Z,18.09
2023-05-07T03:33:05.626Z,18.24
2023-05-07T03:35:32.329Z,18.25
2023-05-07T03:37:59.062Z,17.90
2023-05-07T03:40:26.754Z,17.82
2023-05-07T03:42:53.340Z,17.97
2023-05-07T03:45:19.985Z,18.07
2023-05-07T03:47:46.874Z,17.80
2023-05-07T03:50:13.632Z,17.73
2023-05-07T03:52:40.321Z,17.92
2023-05-07T03:55:06.885Z,17.78
2023-05-07T03:57:33.481Z,17.87
2023-05-07T04:00:00.040Z,17.86
2023-05-07T04:02:26.741Z,17.76
2023-05-07T04:04:53.432Z,17.99
2023-05-07T04:07:20.024Z,17.83
2023-05-07T04:09:47.001Z,18.01
2023-05-07T04:12:13.597Z,18.05
2023-05-07T04:14:40.201Z,18.09
2023-05-07T04:17:06.811Z,17.95
2023-05-07T04:19:33.367Z,18.10
2023-05-07T04:21:59.946Z,18.19
2023-05-07T04:24:26.530Z,18.27
2023-05-07T04:26:53.107Z,18.21
2023-05-07T04:29:19.662Z,18.24
2023-05-07T04:31:46.311Z,18.03
2023-05-07T04:34:12.904Z,17.99
2023-05-07T04:36:39.503Z,18.13
2023-05-07T04:39:06.103Z,18.11
2023-05-07T04:44:00.431Z,18.35
2023-05-07T04:46:27.119Z,18.48
2023-05-07T04:48:53.836Z,18.28
2023-05-07T04:51:20.468Z,18.43
2023-05-07T04:53:48.767Z,18.62
2023-05-07T04:56:17.618Z,18.39
2023-05-07T04:58:44.221Z,18.35
2023-05-07T05:01:10.862Z,18.49
2023-05-07T05:03:37.559Z,18.83
2023-05-07T05:06:04.228Z,19.34
2023-05-07T05:08:30.827Z,19.63
2023-05-07T05:10:57.394Z,19.64
2023-05-07T05:13:24.246Z,19.64
2023-05-07T05:15:51.047Z,19.65
2023-05-07T05:18:17.692Z,19.75
2023-05-07T05:20:44.501Z,19.62
2023-05-07T05:23:11.105Z,19.78
2023-05-07T05:25:37.657Z,19.74
2023-05-07T05:28:04.235Z,19.99
2023-05-07T05:30:30.843Z,19.97
2023-05-07T05:32:57.504Z,19.64
2023-05-07T05:35:24.174Z,19.75
2023-05-07T05:37:51.531Z,19.63
2023-05-07T05:40:18.119Z,19.81
2023-05-07T05:42:44.730Z,19.90
2023-05-07T05:45:11.321Z,19.85
2023-05-07T05:47:37.900Z,19.76
2023-05-07T05:50:04.517Z,20.00
2023-05-07T05:52:31.138Z,19.97
2023-05-07T05:54:57.709Z,20.03
2023-05-07T05:57:26.006Z,20.34
2023-05-07T05:59:53.221Z,20.40
2023-05-07T06:02:19.990Z,20.28
2023-05-07T06:04:46.715Z,20.52
2023-05-07T06:07:13.350Z,20.51
2023-05-07T06:09:39.957Z,20.95
2023-05-07T06:12:06.549Z,21.14
2023-05-07T06:14:33.147Z,21.42
2023-05-07T06:17:00.277Z,21.57
2023-05-07T06:19:29.828Z,21.97
2023-05-07T06:21:58.019Z,21.90
2023-05-07T06:24:24.621Z,22.00
2023-05-07T06:26:51.209Z,22.24
2023-05-07T06:29:17.761Z,22.42
2023-05-07T06:31:44.671Z,22.46
2023-05-07T06:34:11.298Z,22.62
2023-05-07T06:36:37.924Z,22.53
2023-05-07T06:39:04.591Z,22.70
2023-05-07T06:41:31.211Z,22.88
2023-05-07T06:43:58.720Z,22.54
2023-05-07T06:46:26.389Z,22.48
2023-05-07T06:48:53.058Z,22.75
2023-05-07T06:51:19.690Z,23.00
2023-05-07T06:53:51.817Z,23.17
2023-05-07T06:56:18.453Z,23.41
2023-05-07T06:58:45.045Z,23.45
2023-05-07T07:01:11.728Z,23.30
2023-05-07T07:03:38.340Z,22.95
2023-05-07T07:06:04.952Z,22.90
2023-05-07T07:08:31.531Z,23.27
2023-05-07T07:10:58.183Z,23.56
2023-05-07T07:13:24.904Z,23.68
2023-05-07T07:15:51.620Z,23.10
2023-05-07T07:18:18.200Z,23.58
2023-05-07T07:20:44.802Z,23.60
2023-05-07T07:23:11.531Z,23.70
2023-05-07T07:25:38.118Z,23.71
2023-05-07T07:28:04.688Z,23.68
2023-05-07T07:30:31.753Z,23.14
2023-05-07T07:32:58.385Z,23.24
2023-05-07T07:35:25.803Z,23.32
2023-05-07T07:37:52.445Z,23.55
2023-05-07T07:40:19.027Z,23.68
2023-05-07T07:42:45.624Z,23.65
2023-05-07T07:45:13.040Z,22.85
2023-05-07T07:47:40.164Z,23.02
2023-05-07T07:50:06.843Z,23.21
2023-05-07T07:52:33.422Z,22.79
2023-05-07T07:55:00.026Z,22.55
2023-05-07T07:57:26.717Z,22.79
2023-05-07T07:59:54.579Z,22.92
2023-05-07T08:02:21.204Z,23.15
2023-05-07T08:04:47.847Z,23.55
2023-05-07T08:07:14.423Z,23.60
2023-05-07T08:09:41.005Z,24.10
2023-05-07T08:12:07.809Z,24.12
2023-05-07T08:14:34.786Z,24.19
2023-05-07T08:17:01.469Z,23.99
2023-05-07T08:19:28.077Z,23.57
2023-05-07T08:21:56.066Z,24.20
2023-05-07T08:24:22.803Z,24.32
2023-05-07T08:26:49.402Z,23.92
2023-05-07T08:29:16.951Z,24.45
2023-05-07T08:31:43.558Z,24.02
2023-05-07T08:34:10.451Z,23.77
2023-05-07T08:36:37.180Z,23.68
2023-05-07T08:39:03.791Z,24.32
2023-05-07T08:41:30.365Z,24.95
2023-05-07T08:43:56.956Z,24.76
2023-05-07T08:46:23.704Z,25.16
2023-05-07T08:48:50.336Z,24.63
2023-05-07T08:51:17.219Z,23.54
2023-05-07T08:53:43.806Z,23.39
2023-05-07T08:56:10.912Z,24.06
2023-05-07T08:58:37.536Z,24.58
2023-05-07T09:01:04.136Z,25.28
2023-05-07T09:03:30.765Z,24.92
2023-05-07T09:05:57.355Z,24.89
2023-05-07T09:08:23.951Z,25.17
2023-05-07T09:10:50.508Z,25.36
2023-05-07T09:13:18.440Z,25.55
2023-05-07T09:15:45.105Z,25.19
2023-05-07T09:18:11.786Z,25.34
2023-05-07T09:20:38.745Z,26.09
2023-05-07T09:23:05.537Z,26.28
2023-05-07T09:25:33.367Z,26.59
2023-05-07T09:27:59.982Z,26.33
2023-05-07T09:30:26.574Z,26.21
2023-05-07T09:32:53.303Z,26.66
2023-05-07T09:35:20.734Z,26.44
2023-05-07T09:37:47.302Z,25.32
2023-05-07T09:40:13.911Z,24.92
2023-05-07T09:42:40.484Z,24.91
2023-05-07T09:45:07.072Z,25.27
2023-05-07T09:47:33.815Z,25.42
2023-05-07T09:50:00.462Z,25.68
2023-05-07T09:52:27.067Z,25.91
2023-05-07T09:54:53.624Z,24.77
2023-05-07T09:57:20.174Z,24.78
2023-05-07T09:59:46.869Z,24.80
2023-05-07T10:02:13.439Z,24.46
2023-05-07T10:04:40.069Z,24.56
2023-05-07T10:07:06.660Z,24.68
2023-05-07T10:09:33.243Z,24.99
2023-05-07T10:11:59.831Z,24.13
2023-05-07T10:14:26.415Z,24.06
2023-05-07T10:16:53.011Z,24.01
2023-05-07T10:19:21.059Z,24.60
2023-05-07T10:21:47.619Z,25.91
2023-05-07T10:24:14.204Z,26.17
2023-05-07T10:26:40.794Z,26.13
2023-05-07T10:29:07.386Z,26.39
2023-05-07T10:31:34.050Z,26.47
2023-05-07T10:34:00.753Z,26.75
2023-05-07T10:36:27.377Z,26.72
2023-05-07T10:38:53.940Z,26.05
2023-05-07T10:41:20.523Z,26.57
2023-05-07T10:43:47.087Z,27.11
2023-05-07T10:46:13.739Z,26.75
2023-05-07T10:48:40.331Z,26.93
2023-05-07T10:51:08.052Z,27.80
2023-05-07T10:53:35.023Z,27.64
2023-05-07T10:56:01.583Z,28.38
2023-05-07T10:58:32.848Z,27.36
2023-05-07T11:00:59.762Z,26.74
2023-05-07T11:03:26.420Z,26.94
2023-05-07T11:05:52.992Z,27.54
2023-05-07T11:08:19.625Z,27.69
2023-05-07T11:10:46.233Z,26.98
2023-05-07T11:13:12.907Z,27.10
2023-05-07T11:15:39.577Z,26.14
2023-05-07T11:18:06.217Z,26.33
2023-05-07T11:20:32.858Z,25.57
2023-05-07T11:22:59.456Z,25.78
2023-05-07T11:25:26.016Z,25.75
2023-05-07T11:27:52.638Z,27.00
2023-05-07T11:30:20.222Z,26.75
2023-05-07T11:32:46.860Z,26.94
2023-05-07T11:35:14.245Z,26.77
2023-05-07T11:37:41.005Z,26.26
2023-05-07T11:40:07.705Z,26.15
2023-05-07T11:42:35.116Z,26.58
2023-05-07T11:45:01.700Z,26.34
2023-05-07T11:47:28.303Z,27.66
2023-05-07T11:49:54.918Z,27.63
2023-05-07T11:52:21.473Z,27.91
2023-05-07T11:54:48.071Z,27.74
2023-05-07T11:57:14.642Z,27.29
2023-05-07T11:59:41.241Z,27.29
2023-05-07T12:02:08.447Z,27.50
2023-05-07T12:04:35.068Z,27.36
2023-05-07T12:07:03.027Z,27.41
2023-05-07T12:09:29.612Z,27.77
2023-05-07T12:11:56.204Z,26.94
2023-05-07T12:14:23.105Z,26.84
2023-05-07T12:16:49.673Z,26.42
2023-05-07T12:19:16.298Z,27.03
2023-05-07T12:21:42.888Z,26.72
2023-05-07T12:24:09.472Z,26.99
2023-05-07T12:26:36.068Z,26.61
2023-05-07T12:29:02.669Z,26.06
2023-05-07T12:31:29.304Z,26.13
2023-05-07T12:33:55.942Z,26.21
2023-05-07T12:36:22.498Z,26.03
2023-05-07T12:38:49.101Z,26.22
2023-05-07T12:41:15.772Z,25.80
2023-05-07T12:43:42.593Z,25.90
2023-05-07T12:46:09.649Z,26.01
2023-05-07T12:48:36.413Z,26.08
2023-05-07T12:51:03.045Z,26.55
2023-05-07T12:53:29.636Z,26.56
2023-05-07T12:55:56.444Z,26.29
2023-05-07T12:58:23.015Z,25.80
2023-05-07T13:00:49.594Z,25.34
2023-05-07T13:03:16.341Z,25.30
2023-05-07T13:05:42.941Z,25.35
2023-05-07T13:08:09.508Z,25.06
2023-05-07T13:10:36.388Z,25.35
2023-05-07T13:13:03.268Z,25.31
2023-05-07T13:15:29.883Z,24.60
2023-05-07T13:17:56.625Z,24.72
2023-05-07T13:20:23.887Z,24.53
2023-05-07T13:22:50.672Z,24.51
2023-05-07T13:25:17.265Z,24.13
2023-05-07T13:27:43.869Z,22.70
2023-05-07T13:30:10.485Z,22.23
2023-05-07T13:32:37.130Z,22.44
2023-05-07T13:35:03.756Z,22.36
2023-05-07T13:37:30.664Z,21.93
2023-05-07T13:39:57.230Z,21.99
2023-05-07T13:42:24.133Z,22.66
2023-05-07T13:44:50.747Z,22.38
2023-05-07T13:47:17.367Z,22.57
2023-05-07T13:49:44.010Z,22.66
2023-05-07T13:52:10.713Z,23.29
2023-05-07T13:54:37.267Z,23.48
2023-05-07T13:57:03.836Z,23.34
2023-05-07T13:59:30.478Z,23.38
2023-05-07T14:01:57.049Z,23.15
2023-05-07T14:04:23.812Z,23.11
2023-05-07T14:06:50.402Z,23.58
2023-05-07T14:09:17.176Z,23.73
2023-05-07T14:11:44.589Z,23.98
2023-05-07T14:14:12.402Z,24.32
2023-05-07T14:16:38.995Z,23.52
2023-05-07T14:19:05.607Z,23.36
2023-05-07T14:21:32.254Z,23.63
2023-05-07T14:23:58.848Z,23.81
2023-05-07T14:26:25.414Z,23.41
2023-05-07T14:28:52.011Z,23.11
2023-05-07T14:31:18.633Z,23.20
2023-05-07T14:33:45.267Z,23.66
2023-05-07T14:36:11.859Z,23.97
2023-05-07T14:38:38.446Z,23.60
2023-05-07T14:41:04.994Z,23.78
2023-05-07T14:43:32.534Z,23.73
2023-05-07T14:45:59.115Z,23.20
2023-05-07T14:48:25.732Z,22.86
2023-05-07T14:50:52.300Z,23.52
2023-05-07T14:53:18.893Z,22.27
2023-05-07T14:55:45.480Z,22.19
2023-05-07T14:58:12.055Z,21.84
2023-05-07T15:00:38.668Z,22.70
2023-05-07T15:03:05.367Z,22.64
2023-05-07T15:05:31.979Z,23.08
2023-05-07T15:07:58.626Z,23.40
2023-05-07T15:10:25.263Z,23.76
2023-05-07T15:12:51.915Z,23.75
2023-05-07T15:15:18.527Z,23.91
2023-05-07T15:17:46.732Z,24.08
2023-05-07T15:20:13.320Z,23.47
2023-05-07T15:22:39.909Z,23.26
2023-05-07T15:25:06.488Z,23.34
2023-05-07T15:27:33.077Z,23.55
2023-05-07T15:29:59.717Z,22.99
2023-05-07T15:32:26.363Z,23.39
2023-05-07T15:34:52.966Z,23.67
2023-05-07T15:37:19.542Z,24.02
2023-05-07T15:39:46.136Z,24.16
2023-05-07T15:42:12.709Z,24.24
2023-05-07T15:44:39.286Z,24.31
2023-05-07T15:47:05.880Z,24.46
2023-05-07T15:49:32.495Z,24.20
2023-05-07T15:51:59.054Z,24.00
2023-05-07T15:54:25.661Z,24.00
2023-05-07T15:56:52.315Z,23.93
2023-05-07T15:59:18.978Z,23.78
2023-05-07T16:01:45.743Z,23.99
2023-05-07T16:04:14.798Z,23.46
2023-05-07T16:06:41.381Z,23.80
2023-05-07T16:09:07.965Z,23.43
2023-05-07T16:11:34.624Z,22.98
2023-05-07T16:14:01.557Z,23.03
2023-05-07T16:16:28.206Z,23.22
2023-05-07T16:18:55.423Z,23.26
2023-05-07T16:21:22.089Z,22.95
2023-05-07T16:23:48.655Z,22.78
2023-05-07T16:26:15.246Z,23.16
2023-05-07T16:28:41.874Z,23.37
2023-05-07T16:31:08.550Z,23.59
2023-05-07T16:33:35.225Z,23.79
2023-05-07T16:36:01.826Z,23.85
2023-05-07T16:38:28.379Z,23.82
2023-05-07T16:40:55.066Z,23.79
2023-05-07T16:43:22.048Z,23.47
2023-05-07T16:45:48.677Z,23.15
2023-05-07T16:48:15.289Z,23.00
2023-05-07T16:50:41.877Z,22.82
2023-05-07T16:53:08.436Z,22.69
2023-05-07T16:55:37.995Z,22.94
2023-05-07T16:58:05.017Z,22.74
2023-05-07T17:00:46.304Z,22.74
2023-05-07T17:03:16.783Z,22.69
2023-05-07T17:05:43.427Z,22.85
2023-05-07T17:08:10.058Z,22.56
2023-05-07T17:10:36.637Z,22.10
2023-05-07T17:13:03.274Z,22.25
2023-05-07T17:15:29.866Z,22.55
2023-05-07T17:17:56.615Z,22.71
2023-05-07T17:20:23.256Z,22.83
2023-05-07T17:22:49.856Z,22.79
2023-05-07T17:25:16.467Z,22.65
2023-05-07T17:27:43.211Z,22.57
2023-05-07T17:30:10.045Z,22.19
2023-05-07T17:32:36.790Z,21.61
2023-05-07T17:35:04.076Z,21.53
2023-05-07T17:37:31.972Z,21.84
2023-05-07T17:39:58.543Z,21.92
2023-05-07T17:42:25.242Z,21.89
2023-05-07T17:44:51.849Z,21.76
2023-05-07T17:47:18.510Z,21.81
2023-05-07T17:49:45.092Z,21.85
2023-05-07T17:52:11.648Z,21.78
2023-05-07T17:54:38.272Z,21.59
2023-05-07T17:57:04.873Z,21.67
2023-05-07T17:59:31.460Z,21.64
2023-05-07T18:01:59.512Z,21.43
2023-05-07T18:04:26.086Z,21.33
2023-05-07T18:06:52.685Z,21.70
2023-05-07T18:09:19.352Z,21.95
2023-05-07T18:11:45.935Z,21.95
2023-05-07T18:14:12.528Z,21.72
2023-05-07T18:16:39.238Z,21.89
2023-05-07T18:19:05.855Z,21.53
2023-05-07T18:21:32.426Z,21.47
2023-05-07T18:23:59.113Z,21.44
2023-05-07T18:26:25.787Z,21.37
2023-05-07T18:28:52.377Z,21.55
2023-05-07T18:31:19.053Z,21.66
2023-05-07T18:33:45.669Z,21.59
2023-05-07T18:36:12.227Z,21.57
2023-05-07T18:38:38.910Z,21.78
2023-05-07T18:41:05.583Z,21.93
2023-05-07T18:43:32.136Z,22.05
2023-05-07T18:45:58.866Z,21.92
2023-05-07T18:48:25.533Z,21.67
2023-05-07T18:50:58.277Z,21.64
2023-05-07T18:53:24.980Z,21.64
2023-05-07T18:55:51.552Z,21.67
2023-05-07T18:58:19.067Z,21.78
2023-05-07T19:00:45.695Z,21.83
2023-05-07T19:03:12.450Z,21.93
2023-05-07T19:05:39.217Z,21.97
2023-05-07T19:08:05.984Z,22.04
2023-05-07T19:10:34.301Z,21.95
2023-05-07T19:13:00.926Z,21.72
2023-05-07T19:15:27.602Z,21.74
2023-05-07T19:17:54.418Z,21.76
2023-05-07T19:20:21.008Z,21.92
2023-05-07T19:22:47.598Z,21.95
2023-05-07T19:25:14.320Z,22.00
2023-05-07T19:27:41.123Z,21.81
2023-05-07T19:30:07.809Z,21.84
2023-05-07T19:32:34.455Z,21.87
2023-05-07T19:35:01.071Z,21.89
2023-05-07T19:37:27.644Z,21.87
2023-05-07T19:39:56.429Z,21.76
2023-05-07T19:42:23.118Z,21.79
2023-05-07T19:44:49.714Z,21.84
2023-05-07T19:47:16.291Z,21.87
2023-05-07T19:49:42.883Z,21.93
2023-05-07T19:52:09.459Z,22.00
2023-05-07T19:54:36.082Z,22.09
2023-05-07T19:57:02.818Z,21.97
2023-05-07T19:59:29.404Z,21.83
2023-05-07T20:01:56.114Z,21.82
2023-05-07T20:04:22.783Z,21.87
2023-05-07T20:06:49.462Z,21.91
2023-05-07T20:09:19.113Z,21.87
2023-05-07T20:11:46.160Z,21.89
2023-05-07T20:14:13.478Z,21.88
2023-05-07T20:16:40.141Z,21.93
2023-05-07T20:19:06.750Z,21.89
2023-05-07T20:21:33.384Z,21.75
2023-05-07T20:24:00.044Z,21.77
2023-05-07T20:26:26.650Z,21.80
2023-05-07T20:28:53.243Z,21.70
2023-05-07T20:31:19.860Z,21.62
2023-05-07T20:33:46.426Z,21.72
2023-05-07T20:36:13.023Z,21.74
2023-05-07T20:38:39.653Z,21.74
2023-05-07T20:41:06.237Z,21.86
2023-05-07T20:43:32.786Z,21.87
2023-05-07T20:45:59.446Z,21.78
2023-05-07T20:48:26.057Z,21.58
2023-05-07T20:50:52.623Z,21.52
2023-05-07T20:53:19.249Z,21.51
2023-05-07T20:55:46.124Z,21.56
2023-05-07T20:58:19.810Z,21.56
2023-05-07T21:00:46.391Z,21.63
2023-05-07T21:03:12.990Z,21.61
2023-05-07T21:05:39.601Z,21.67
2023-05-07T21:08:06.169Z,21.67
2023-05-07T21:10:32.765Z,21.59
2023-05-07T21:12:59.385Z,21.52
2023-05-07T21:15:26.033Z,21.50
2023-05-07T21:20:37.138Z,21.43
2023-05-07T21:23:03.796Z,21.47
2023-05-07T21:25:30.385Z,21.33
2023-05-07T21:27:56.987Z,21.37
2023-05-07T21:30:23.936Z,21.44
2023-05-07T21:32:50.625Z,21.47
2023-05-07T21:35:17.263Z,21.41
2023-05-07T21:37:43.862Z,21.38
2023-05-07T21:40:10.603Z,21.39
2023-05-07T21:42:39.083Z,21.45
2023-05-07T21:45:05.690Z,21.33
2023-05-07T21:47:32.350Z,21.42
2023-05-07T21:49:58.950Z,21.39
2023-05-07T21:52:25.842Z,21.33
2023-05-07T21:54:52.740Z,21.34
2023-05-07T21:57:19.362Z,21.42
2023-05-07T21:59:45.949Z,21.42
2023-05-07T22:02:12.546Z,21.29
2023-05-07T22:04:39.093Z,21.35
2023-05-07T22:07:05.686Z,21.38
2023-05-07T22:09:32.306Z,21.46
2023-05-07T22:11:59.225Z,21.38
2023-05-07T22:14:27.728Z,21.46
2023-05-07T22:16:54.348Z,21.45
2023-05-07T22:19:21.097Z,21.41
2023-05-07T22:21:47.675Z,21.35
2023-05-07T22:24:14.320Z,21.29
2023-05-07T22:26:40.905Z,21.21
2023-05-07T22:29:11.124Z,21.25
2023-05-07T22:31:37.793Z,21.31
2023-05-07T22:34:04.423Z,21.37
2023-05-07T22:36:30.992Z,21.39
2023-05-07T22:38:57.688Z,21.38
2023-05-07T22:41:24.277Z,21.40
2023-05-07T22:43:50.839Z,21.33
2023-05-07T22:46:17.450Z,21.17
2023-05-07T22:48:46.304Z,21.10
2023-05-07T22:51:12.917Z,21.12
2023-05-07T22:53:39.497Z,21.14
2023-05-07T22:56:06.130Z,21.21
2023-05-07T22:58:32.692Z,21.25
2023-05-07T23:00:59.332Z,21.26
2023-05-07T23:03:26.125Z,21.24
2023-05-07T23:05:52.795Z,21.33
2023-05-07T23:08:19.372Z,21.28
2023-05-07T23:10:46.089Z,21.33
2023-05-07T23:13:13.043Z,21.35
2023-05-07T23:15:39.690Z,21.25
2023-05-07T23:18:06.319Z,21.20
2023-05-07T23:20:32.932Z,21.16
2023-05-07T23:22:59.636Z,21.07
2023-05-07T23:25:26.275Z,21.11
2023-05-07T23:27:53.470Z,21.17
2023-05-07T23:30:20.077Z,21.06
2023-05-07T23:32:47.146Z,20.50
2023-05-07T23:35:13.897Z,20.46
2023-05-07T23:37:40.690Z,20.51
2023-05-07T23:40:09.969Z,20.54
2023-05-07T23:42:36.803Z,19.86
2023-05-07T23:45:03.372Z,19.25
2023-05-07T23:47:29.990Z,19.10
2023-05-07T23:49:58.599Z,18.76
2023-05-07T23:52:26.931Z,18.91
2023-05-07T23:54:53.976Z,19.02
2023-05-07T23:57:20.538Z,19.17
2023-05-07T23:59:48.140Z,19.20
